sensor_id;sensor_type;location;lat;lon;timestamp;pressure;altitude;pressure_sealevel;temperature;humidity
60886;BME280;46736;41.654;-8.438;2022-08-05T02:06:01;100278.41;;;18.65;89.87
60886;BME280;46736;41.654;-8.438;2022-08-05T02:12:49;100275.97;;;18.63;88.40
60886;BME280;46736;41.654;-8.438;2022-08-05T02:15:27;100261.03;;;18.47;88.50
60886;BME280;46736;41.654;-8.438;2022-08-05T02:17:34;100270.72;;;18.67;88.42
60886;BME280;46736;41.654;-8.438;2022-08-05T02:19:44;100289.69;;;18.72;87.98
60886;BME280;46736;41.654;-8.438;2022-08-05T02:26:42;100270.00;;;18.61;86.83
60886;BME280;46736;41.654;-8.438;2022-08-05T02:29:08;100278.50;;;18.59;86.95
60886;BME280;46736;41.654;-8.438;2022-08-05T02:31:16;100251.38;;;18.41;88.38
60886;BME280;46736;41.654;-8.438;2022-08-05T02:33:19;100290.78;;;18.71;87.99
60886;BME280;46736;41.654;-8.438;2022-08-05T02:41:16;100268.72;;;18.31;89.64
60886;BME280;46736;41.654;-8.438;2022-08-05T02:43:43;100292.00;;;18.65;87.95
60886;BME280;46736;41.654;-8.438;2022-08-05T02:52:44;100268.38;;;18.19;90.58
60886;BME280;46736;41.654;-8.438;2022-08-05T02:59:14;100263.56;;;18.29;90.90
60886;BME280;46736;41.654;-8.438;2022-08-05T03:01:41;100290.59;;;18.40;90.48
60886;BME280;46736;41.654;-8.438;2022-08-05T03:12:30;100263.34;;;18.12;89.98
60886;BME280;46736;41.654;-8.438;2022-08-05T03:22:13;100281.72;;;18.20;89.07
60886;BME280;46736;41.654;-8.438;2022-08-05T04:16:49;100286.88;;;17.70;91.46
60886;BME280;46736;41.654;-8.438;2022-08-05T04:18:50;100291.31;;;17.66;92.28
60886;BME280;46736;41.654;-8.438;2022-08-05T04:23:51;100292.72;;;17.63;91.45
60886;BME280;46736;41.654;-8.438;2022-08-05T04:25:52;100298.00;;;17.74;92.22
60886;BME280;46736;41.654;-8.438;2022-08-05T04:27:53;100298.59;;;17.70;92.15
60886;BME280;46736;41.654;-8.438;2022-08-05T04:29:54;100292.44;;;17.65;91.19
60886;BME280;46736;41.654;-8.438;2022-08-05T04:32:00;100288.69;;;17.61;90.86
60886;BME280;46736;41.654;-8.438;2022-08-05T04:34:01;100286.56;;;17.58;91.53
60886;BME280;46736;41.654;-8.438;2022-08-05T04:36:03;100285.28;;;17.69;91.63
60886;BME280;46736;41.654;-8.438;2022-08-05T04:38:09;100266.88;;;17.47;91.89
60886;BME280;46736;41.654;-8.438;2022-08-05T04:40:16;100297.63;;;17.61;91.81
60886;BME280;46736;41.654;-8.438;2022-08-05T04:42:16;100296.09;;;17.55;91.36
60886;BME280;46736;41.654;-8.438;2022-08-05T04:44:19;100301.66;;;17.83;90.58
60886;BME280;46736;41.654;-8.438;2022-08-05T04:48:21;100315.34;;;17.59;91.04
60886;BME280;46736;41.654;-8.438;2022-08-05T04:50:22;100310.22;;;17.57;92.40
60886;BME280;46736;41.654;-8.438;2022-08-05T04:52:22;100309.41;;;17.57;92.73
60886;BME280;46736;41.654;-8.438;2022-08-05T04:54:23;100312.13;;;17.57;93.29
60886;BME280;46736;41.654;-8.438;2022-08-05T04:56:26;100315.66;;;17.57;93.66
60886;BME280;46736;41.654;-8.438;2022-08-05T04:58:27;100302.63;;;17.54;92.34
60886;BME280;46736;41.654;-8.438;2022-08-05T05:00:27;100309.41;;;17.57;91.93
60886;BME280;46736;41.654;-8.438;2022-08-05T05:02:28;100305.94;;;17.51;92.66
60886;BME280;46736;41.654;-8.438;2022-08-05T05:04:29;100297.88;;;17.46;92.75
60886;BME280;46736;41.654;-8.438;2022-08-05T05:06:29;100297.00;;;17.50;92.49
60886;BME280;46736;41.654;-8.438;2022-08-05T05:08:30;100302.78;;;17.63;91.80
60886;BME280;46736;41.654;-8.438;2022-08-05T05:10:38;100312.88;;;17.62;91.84
60886;BME280;46736;41.654;-8.438;2022-08-05T05:12:41;100314.63;;;17.53;91.82
60886;BME280;46736;41.654;-8.438;2022-08-05T05:14:41;100315.44;;;17.54;91.36
60886;BME280;46736;41.654;-8.438;2022-08-05T05:19:06;100317.47;;;17.62;90.88
60886;BME280;46736;41.654;-8.438;2022-08-05T05:21:06;100317.06;;;17.55;91.35
60886;BME280;46736;41.654;-8.438;2022-08-05T05:23:07;100315.44;;;17.54;91.63
60886;BME280;46736;41.654;-8.438;2022-08-05T05:25:08;100326.31;;;17.54;92.25
60886;BME280;46736;41.654;-8.438;2022-08-05T05:27:09;100326.81;;;17.56;92.13
60886;BME280;46736;41.654;-8.438;2022-08-05T05:29:09;100317.34;;;17.53;91.69
60886;BME280;46736;41.654;-8.438;2022-08-05T05:31:11;100327.88;;;17.60;91.06
60886;BME280;46736;41.654;-8.438;2022-08-05T05:33:11;100332.91;;;17.66;90.01
60886;BME280;46736;41.654;-8.438;2022-08-05T05:35:12;100333.59;;;17.58;90.77
60886;BME280;46736;41.654;-8.438;2022-08-05T05:37:14;100338.28;;;17.53;91.46
60886;BME280;46736;41.654;-8.438;2022-08-05T05:39:14;100339.38;;;17.52;91.91
60886;BME280;46736;41.654;-8.438;2022-08-05T05:43:48;100343.50;;;17.49;91.45
60886;BME280;46736;41.654;-8.438;2022-08-05T05:45:48;100340.94;;;17.58;91.61
60886;BME280;46736;41.654;-8.438;2022-08-05T05:47:50;100346.16;;;17.54;91.43
60886;BME280;46736;41.654;-8.438;2022-08-05T05:55:32;100341.09;;;17.47;89.96
60886;BME280;46736;41.654;-8.438;2022-08-05T05:57:32;100295.75;;;17.24;90.21
60886;BME280;46736;41.654;-8.438;2022-08-05T05:59:33;100341.22;;;17.56;90.82
60886;BME280;46736;41.654;-8.438;2022-08-05T06:01:36;100317.63;;;17.52;90.36
60886;BME280;46736;41.654;-8.438;2022-08-05T06:06:01;100330.00;;;17.63;89.78
60886;BME280;46736;41.654;-8.438;2022-08-05T06:10:48;100357.16;;;18.01;88.57
60886;BME280;46736;41.654;-8.438;2022-08-05T06:12:50;100340.50;;;17.88;89.07
60886;BME280;46736;41.654;-8.438;2022-08-05T06:17:15;100336.25;;;17.96;89.04
60886;BME280;46736;41.654;-8.438;2022-08-05T06:19:16;100329.75;;;17.97;88.67
60886;BME280;46736;41.654;-8.438;2022-08-05T06:23:40;100370.31;;;18.12;88.73
60886;BME280;46736;41.654;-8.438;2022-08-05T06:25:58;100379.00;;;18.14;89.09
60886;BME280;46736;41.654;-8.438;2022-08-05T06:28:00;100376.91;;;18.25;89.13
60886;BME280;46736;41.654;-8.438;2022-08-05T06:30:01;100362.47;;;18.25;89.63
60886;BME280;46736;41.654;-8.438;2022-08-05T06:32:02;100353.81;;;18.36;88.43
60886;BME280;46736;41.654;-8.438;2022-08-05T06:34:06;100376.63;;;18.41;88.90
60886;BME280;46736;41.654;-8.438;2022-08-05T06:36:07;100376.84;;;18.44;88.73
60886;BME280;46736;41.654;-8.438;2022-08-05T06:38:07;100376.75;;;18.49;88.57
60886;BME280;46736;41.654;-8.438;2022-08-05T06:42:10;100385.00;;;18.58;87.48
60886;BME280;46736;41.654;-8.438;2022-08-05T06:44:13;100374.94;;;18.72;86.16
60886;BME280;46736;41.654;-8.438;2022-08-05T06:58:14;100354.50;;;18.75;85.62
60886;BME280;46736;41.654;-8.438;2022-08-05T07:00:15;100372.53;;;18.85;85.97
60886;BME280;46736;41.654;-8.438;2022-08-05T18:09:15;100245.91;;;30.08;48.42
60886;BME280;46736;41.654;-8.438;2022-08-05T23:23:35;100430.72;;;20.84;78.01
60886;BME280;46736;41.654;-8.438;2022-08-05T23:25:36;100438.78;;;20.81;78.34
60886;BME280;46736;41.654;-8.438;2022-08-05T23:33:19;100418.88;;;20.58;78.99
60886;BME280;46736;41.654;-8.438;2022-08-05T23:35:34;100416.97;;;20.67;78.02
60886;BME280;46736;41.654;-8.438;2022-08-05T23:37:37;100426.47;;;20.69;78.67
60886;BME280;46736;41.654;-8.438;2022-08-05T23:39:41;100433.97;;;20.55;79.25
60886;BME280;46736;41.654;-8.438;2022-08-05T23:41:42;100426.88;;;20.54;79.57
60886;BME280;46736;41.654;-8.438;2022-08-05T23:43:44;100412.72;;;20.52;79.27
60886;BME280;46736;41.654;-8.438;2022-08-05T23:45:45;100408.97;;;20.48;78.83
60886;BME280;46736;41.654;-8.438;2022-08-05T23:47:46;100428.41;;;20.46;79.21
60886;BME280;46736;41.654;-8.438;2022-08-05T23:57:16;100421.75;;;20.07;81.64
60886;BME280;46736;41.654;-8.438;2022-08-05T23:59:18;100402.06;;;19.97;81.84
